Sion Mills, United Kingdom
Current Conditions -  °F | °C
As of 3:50 PM on Sunday 21 Dec 2014 (Local Time) from EGAE Reporting Station
Light Rain Light Rain  
Wind Chill: 55°   Ceiling: 1600
Heat Index: 55°   Visibility: 6mi
Dew Point: 52°   Wind: 26mph
Humidity: 88%   Direction: 240°WSW
Pressure: 29.77"   Gusts: NA
Location:  54.79°N, 7.47°W
Report Text: EGAE 211550Z 24023KT 9999 -RA SCT009 BKN016 13/11 Q1008
Loading
Personal Weather Stations






























Interactive Weather Map New forecast layout! Learn more

10-Day Weather Forecast

Advertisements
Track Severe Weather on mobile